sensor_id;sensor_type;location;lat;lon;timestamp;pressure;altitude;pressure_sealevel;temperature;humidity
65897;BME280;52677;50.898;10.854;2023-05-20T00:01:29;99179.44;;;11.33;100.00
65897;BME280;52677;50.898;10.854;2023-05-20T00:03:29;99168.31;;;11.29;100.00
65897;BME280;52677;50.898;10.854;2023-05-20T00:05:29;99172.25;;;11.28;100.00
65897;BME280;52677;50.898;10.854;2023-05-20T00:07:30;99166.63;;;11.24;100.00
65897;BME280;52677;50.898;10.854;2023-05-20T00:09:31;99164.22;;;11.23;100.00
65897;BME280;52677;50.898;10.854;2023-05-20T00:11:31;99164.16;;;11.19;100.00
65897;BME280;52677;50.898;10.854;2023-05-20T00:13:31;99163.72;;;11.17;100.00
65897;BME280;52677;50.898;10.854;2023-05-20T00:15:32;99166.56;;;11.21;100.00
65897;BME280;52677;50.898;10.854;2023-05-20T00:17:32;99172.75;;;11.14;100.00
65897;BME280;52677;50.898;10.854;2023-05-20T00:19:33;99176.31;;;11.15;100.00
65897;BME280;52677;50.898;10.854;2023-05-20T00:21:33;99167.59;;;11.13;100.00
65897;BME280;52677;50.898;10.854;2023-05-20T00:23:33;99173.91;;;11.13;100.00
65897;BME280;52677;50.898;10.854;2023-05-20T00:25:34;99164.81;;;11.13;100.00
65897;BME280;52677;50.898;10.854;2023-05-20T00:27:34;99169.56;;;11.12;100.00
65897;BME280;52677;50.898;10.854;2023-05-20T00:29:35;99164.81;;;11.13;100.00
65897;BME280;52677;50.898;10.854;2023-05-20T00:31:35;99169.19;;;11.14;100.00
65897;BME280;52677;50.898;10.854;2023-05-20T00:33:35;99169.19;;;11.14;100.00
65897;BME280;52677;50.898;10.854;2023-05-20T00:35:36;99162.78;;;11.10;100.00
65897;BME280;52677;50.898;10.854;2023-05-20T00:37:36;99167.53;;;11.09;100.00
65897;BME280;52677;50.898;10.854;2023-05-20T00:39:37;99152.56;;;11.14;100.00
65897;BME280;52677;50.898;10.854;2023-05-20T00:41:37;99163.59;;;11.10;100.00
65897;BME280;52677;50.898;10.854;2023-05-20T00:43:38;99158.75;;;11.07;100.00
65897;BME280;52677;50.898;10.854;2023-05-20T00:45:38;99170.19;;;11.06;100.00
65897;BME280;52677;50.898;10.854;2023-05-20T00:47:39;99157.81;;;11.00;100.00
65897;BME280;52677;50.898;10.854;2023-05-20T00:49:39;99160.22;;;11.01;100.00
65897;BME280;52677;50.898;10.854;2023-05-20T00:51:40;99164.50;;;10.98;100.00
65897;BME280;52677;50.898;10.854;2023-05-20T00:53:40;99152.22;;;10.96;100.00
65897;BME280;52677;50.898;10.854;2023-05-20T00:55:41;99152.56;;;10.94;100.00
65897;BME280;52677;50.898;10.854;2023-05-20T00:57:41;99148.91;;;10.90;100.00
65897;BME280;52677;50.898;10.854;2023-05-20T00:59:42;99147.75;;;10.91;100.00
65897;BME280;52677;50.898;10.854;2023-05-20T01:01:42;99147.25;;;10.86;100.00
65897;BME280;52677;50.898;10.854;2023-05-20T01:03:43;99142.44;;;10.83;100.00
65897;BME280;52677;50.898;10.854;2023-05-20T01:05:43;99148.44;;;10.85;100.00
65897;BME280;52677;50.898;10.854;2023-05-20T01:07:44;99154.31;;;10.83;100.00
65897;BME280;52677;50.898;10.854;2023-05-20T01:09:44;99148.69;;;10.80;100.00
65897;BME280;52677;50.898;10.854;2023-05-20T01:11:50;99145.13;;;10.79;100.00
65897;BME280;52677;50.898;10.854;2023-05-20T01:13:55;99144.97;;;10.72;100.00
65897;BME280;52677;50.898;10.854;2023-05-20T01:15:58;99140.63;;;10.71;100.00
65897;BME280;52677;50.898;10.854;2023-05-20T01:18:00;99140.25;;;10.73;100.00
65897;BME280;52677;50.898;10.854;2023-05-20T01:20:06;99142.63;;;10.74;100.00
65897;BME280;52677;50.898;10.854;2023-05-20T01:22:10;99141.78;;;10.70;100.00
65897;BME280;52677;50.898;10.854;2023-05-20T01:24:11;99133.84;;;10.68;100.00
65897;BME280;52677;50.898;10.854;2023-05-20T01:26:12;99135.06;;;10.71;100.00
65897;BME280;52677;50.898;10.854;2023-05-20T01:28:16;99139.00;;;10.70;100.00
65897;BME280;52677;50.898;10.854;2023-05-20T01:30:17;99140.97;;;10.69;100.00
65897;BME280;52677;50.898;10.854;2023-05-20T01:32:20;99134.34;;;10.74;100.00
65897;BME280;52677;50.898;10.854;2023-05-20T01:34:21;99140.19;;;10.69;100.00
65897;BME280;52677;50.898;10.854;2023-05-20T01:36:22;99135.00;;;10.67;100.00
65897;BME280;52677;50.898;10.854;2023-05-20T01:38:23;99144.03;;;10.64;100.00
65897;BME280;52677;50.898;10.854;2023-05-20T01:40:24;99143.66;;;10.66;100.00
65897;BME280;52677;50.898;10.854;2023-05-20T01:42:27;99132.09;;;10.60;100.00
65897;BME280;52677;50.898;10.854;2023-05-20T01:44:28;99138.78;;;10.59;100.00
65897;BME280;52677;50.898;10.854;2023-05-20T01:46:32;99136.34;;;10.58;100.00
65897;BME280;52677;50.898;10.854;2023-05-20T01:48:33;99142.34;;;10.60;100.00
65897;BME280;52677;50.898;10.854;2023-05-20T01:50:33;99139.94;;;10.58;100.00
65897;BME280;52677;50.898;10.854;2023-05-20T01:52:34;99140.38;;;10.60;100.00
65897;BME280;52677;50.898;10.854;2023-05-20T01:54:35;99137.09;;;10.55;100.00
65897;BME280;52677;50.898;10.854;2023-05-20T01:56:35;99125.97;;;10.51;100.00
65897;BME280;52677;50.898;10.854;2023-05-20T01:58:36;99133.16;;;10.56;100.00
65897;BME280;52677;50.898;10.854;2023-05-20T02:00:36;99135.13;;;10.55;100.00
65897;BME280;52677;50.898;10.854;2023-05-20T02:02:36;99136.72;;;10.56;100.00
65897;BME280;52677;50.898;10.854;2023-05-20T02:04:37;99122.03;;;10.52;100.00
65897;BME280;52677;50.898;10.854;2023-05-20T02:06:37;99122.03;;;10.52;100.00
65897;BME280;52677;50.898;10.854;2023-05-20T02:08:37;99128.72;;;10.51;100.00
65897;BME280;52677;50.898;10.854;2023-05-20T02:10:38;99126.81;;;10.55;100.00
65897;BME280;52677;50.898;10.854;2023-05-20T02:12:38;99127.56;;;10.52;100.00
65897;BME280;52677;50.898;10.854;2023-05-20T02:14:38;99139.50;;;10.56;100.00
65897;BME280;52677;50.898;10.854;2023-05-20T02:16:38;99130.41;;;10.56;100.00
65897;BME280;52677;50.898;10.854;2023-05-20T02:18:40;99137.97;;;10.59;100.00
65897;BME280;52677;50.898;10.854;2023-05-20T02:20:41;99136.03;;;10.59;100.00
65897;BME280;52677;50.898;10.854;2023-05-20T02:22:42;99135.94;;;10.56;100.00
65897;BME280;52677;50.898;10.854;2023-05-20T02:24:42;99137.09;;;10.55;100.00
65897;BME280;52677;50.898;10.854;2023-05-20T02:26:45;99140.66;;;10.55;100.00
65897;BME280;52677;50.898;10.854;2023-05-20T02:28:45;99137.47;;;10.53;100.00
65897;BME280;52677;50.898;10.854;2023-05-20T02:30:49;99140.28;;;10.57;100.00
65897;BME280;52677;50.898;10.854;2023-05-20T02:32:52;99133.09;;;10.52;100.00
65897;BME280;52677;50.898;10.854;2023-05-20T02:34:56;99137.09;;;10.55;100.00
65897;BME280;52677;50.898;10.854;2023-05-20T02:36:56;99132.28;;;10.52;100.00
65897;BME280;52677;50.898;10.854;2023-05-20T02:38:56;99135.88;;;10.52;100.00
65897;BME280;52677;50.898;10.854;2023-05-20T02:40:57;99130.66;;;10.51;100.00
65897;BME280;52677;50.898;10.854;2023-05-20T02:42:59;99137.81;;;10.52;100.00
65897;BME280;52677;50.898;10.854;2023-05-20T02:45:00;99129.88;;;10.50;100.00
65897;BME280;52677;50.898;10.854;2023-05-20T02:47:01;99127.41;;;10.45;100.00
65897;BME280;52677;50.898;10.854;2023-05-20T02:49:01;99127.84;;;10.47;100.00
65897;BME280;52677;50.898;10.854;2023-05-20T02:51:01;99132.19;;;10.48;100.00
65897;BME280;52677;50.898;10.854;2023-05-20T02:53:02;99121.13;;;10.48;100.00
65897;BME280;52677;50.898;10.854;2023-05-20T02:55:02;99123.47;;;10.46;100.00
65897;BME280;52677;50.898;10.854;2023-05-20T02:57:03;99111.59;;;10.46;100.00
65897;BME280;52677;50.898;10.854;2023-05-20T02:59:03;99122.56;;;10.42;100.00
65897;BME280;52677;50.898;10.854;2023-05-20T03:01:05;99129.38;;;10.45;100.00
65897;BME280;52677;50.898;10.854;2023-05-20T03:03:06;99129.38;;;10.45;100.00
65897;BME280;52677;50.898;10.854;2023-05-20T03:05:07;99128.63;;;10.48;100.00
65897;BME280;52677;50.898;10.854;2023-05-20T03:07:07;99117.88;;;10.43;100.00
65897;BME280;52677;50.898;10.854;2023-05-20T03:09:08;99119.00;;;10.41;100.00
65897;BME280;52677;50.898;10.854;2023-05-20T03:11:09;99113.56;;;10.45;100.00
65897;BME280;52677;50.898;10.854;2023-05-20T03:13:09;99115.16;;;10.46;100.00
65897;BME280;52677;50.898;10.854;2023-05-20T03:15:10;99105.53;;;10.40;100.00
65897;BME280;52677;50.898;10.854;2023-05-20T03:17:11;99112.34;;;10.43;100.00
65897;BME280;52677;50.898;10.854;2023-05-20T03:19:11;99108.75;;;10.42;100.00
65897;BME280;52677;50.898;10.854;2023-05-20T03:21:12;99115.00;;;10.39;100.00
65897;BME280;52677;50.898;10.854;2023-05-20T03:23:12;99102.63;;;10.33;100.00
65897;BME280;52677;50.898;10.854;2023-05-20T03:25:12;99105.47;;;10.36;100.00
65897;BME280;52677;50.898;10.854;2023-05-20T03:27:13;99098.25;;;10.32;100.00
65897;BME280;52677;50.898;10.854;2023-05-20T03:29:13;99107.72;;;10.31;100.00
65897;BME280;52677;50.898;10.854;2023-05-20T03:31:13;99106.53;;;10.32;100.00
65897;BME280;52677;50.898;10.854;2023-05-20T03:33:14;99104.50;;;10.29;100.00
65897;BME280;52677;50.898;10.854;2023-05-20T03:35:15;99104.50;;;10.29;100.00
65897;BME280;52677;50.898;10.854;2023-05-20T03:37:15;99097.09;;;10.33;100.00
65897;BME280;52677;50.898;10.854;2023-05-20T03:39:15;99101.75;;;10.29;100.00
65897;BME280;52677;50.898;10.854;2023-05-20T03:41:16;99107.72;;;10.31;100.00
65897;BME280;52677;50.898;10.854;2023-05-20T03:43:16;99099.78;;;10.29;100.00
65897;BME280;52677;50.898;10.854;2023-05-20T03:45:16;99098.44;;;10.23;100.00
65897;BME280;52677;50.898;10.854;2023-05-20T03:47:17;99093.72;;;10.24;100.00
65897;BME280;52677;50.898;10.854;2023-05-20T03:49:17;99094.41;;;10.21;100.00
65897;BME280;52677;50.898;10.854;2023-05-20T03:51:17;99098.34;;;10.20;100.00
65897;BME280;52677;50.898;10.854;2023-05-20T03:53:17;99092.44;;;10.21;100.00
65897;BME280;52677;50.898;10.854;2023-05-20T03:55:19;99097.97;;;10.21;100.00
65897;BME280;52677;50.898;10.854;2023-05-20T03:57:20;99094.41;;;10.21;100.00
65897;BME280;52677;50.898;10.854;2023-05-20T03:59:20;99093.63;;;10.20;100.00
65897;BME280;52677;50.898;10.854;2023-05-20T04:01:21;99098.78;;;10.22;100.00
65897;BME280;52677;50.898;10.854;2023-05-20T04:03:24;99086.94;;;10.21;100.00
65897;BME280;52677;50.898;10.854;2023-05-20T04:05:25;99100.75;;;10.21;100.00
65897;BME280;52677;50.898;10.854;2023-05-20T04:07:25;99097.56;;;10.19;100.00
65897;BME280;52677;50.898;10.854;2023-05-20T04:09:26;99093.53;;;10.17;100.00
65897;BME280;52677;50.898;10.854;2023-05-20T04:11:26;99104.94;;;10.15;100.00
65897;BME280;52677;50.898;10.854;2023-05-20T04:13:27;99109.31;;;10.16;100.00
65897;BME280;52677;50.898;10.854;2023-05-20T04:15:27;99109.16;;;10.09;100.00
65897;BME280;52677;50.898;10.854;2023-05-20T04:17:29;99104.94;;;10.15;100.00
65897;BME280;52677;50.898;10.854;2023-05-20T04:19:30;99108.81;;;10.10;100.00
65897;BME280;52677;50.898;10.854;2023-05-20T04:21:30;99119.50;;;10.12;100.00
65897;BME280;52677;50.898;10.854;2023-05-20T04:23:31;99101.69;;;10.09;100.00
65897;BME280;52677;50.898;10.854;2023-05-20T04:25:32;99111.56;;;10.10;100.00
65897;BME280;52677;50.898;10.854;2023-05-20T04:27:32;99113.19;;;10.11;100.00
65897;BME280;52677;50.898;10.854;2023-05-20T04:29:32;99120.19;;;10.09;100.00
65897;BME280;52677;50.898;10.854;2023-05-20T04:31:33;99121.38;;;10.08;100.00
65897;BME280;52677;50.898;10.854;2023-05-20T04:33:33;99117.00;;;10.07;100.00
65897;BME280;52677;50.898;10.854;2023-05-20T04:35:37;99125.66;;;10.05;100.00
65897;BME280;52677;50.898;10.854;2023-05-20T04:37:40;99122.53;;;10.07;100.00
65897;BME280;52677;50.898;10.854;2023-05-20T04:39:41;99114.97;;;10.04;100.00
65897;BME280;52677;50.898;10.854;2023-05-20T04:41:42;99120.13;;;10.05;100.00
65897;BME280;52677;50.898;10.854;2023-05-20T04:43:43;99121.28;;;10.04;100.00
65897;BME280;52677;50.898;10.854;2023-05-20T04:45:44;99112.09;;;10.00;100.00
65897;BME280;52677;50.898;10.854;2023-05-20T04:47:47;99120.06;;;10.02;100.00
65897;BME280;52677;50.898;10.854;2023-05-20T04:49:48;99120.06;;;10.02;100.00
65897;BME280;52677;50.898;10.854;2023-05-20T04:51:49;99124.88;;;10.05;100.00
65897;BME280;52677;50.898;10.854;2023-05-20T04:53:50;99124.94;;;10.08;100.00
65897;BME280;52677;50.898;10.854;2023-05-20T04:55:54;99130.47;;;10.08;100.00
65897;BME280;52677;50.898;10.854;2023-05-20T04:57:55;99117.44;;;10.09;100.00
65897;BME280;52677;50.898;10.854;2023-05-20T04:59:56;99134.75;;;10.06;100.00
65897;BME280;52677;50.898;10.854;2023-05-20T05:01:57;99123.16;;;10.00;100.00
65897;BME280;52677;50.898;10.854;2023-05-20T05:03:58;99132.63;;;9.99;100.00
65897;BME280;52677;50.898;10.854;2023-05-20T05:05:58;99134.16;;;9.97;100.00
65897;BME280;52677;50.898;10.854;2023-05-20T05:07:58;99126.66;;;9.97;100.00
65897;BME280;52677;50.898;10.854;2023-05-20T05:09:59;99130.56;;;9.96;100.00
65897;BME280;52677;50.898;10.854;2023-05-20T05:11:59;99126.38;;;10.02;100.00
65897;BME280;52677;50.898;10.854;2023-05-20T05:14:00;99116.50;;;10.01;100.00
65897;BME280;52677;50.898;10.854;2023-05-20T05:16:01;99121.56;;;9.99;100.00
65897;BME280;52677;50.898;10.854;2023-05-20T05:18:02;99124.78;;;10.01;100.00
65897;BME280;52677;50.898;10.854;2023-05-20T05:20:02;99124.44;;;10.03;100.00
65897;BME280;52677;50.898;10.854;2023-05-20T05:22:03;99124.44;;;10.03;100.00
65897;BME280;52677;50.898;10.854;2023-05-20T05:24:03;99126.47;;;10.06;100.00
65897;BME280;52677;50.898;10.854;2023-05-20T05:26:04;99122.91;;;10.05;100.00
65897;BME280;52677;50.898;10.854;2023-05-20T05:28:04;99123.63;;;10.02;100.00
65897;BME280;52677;50.898;10.854;2023-05-20T05:30:05;99118.00;;;9.99;100.00
65897;BME280;52677;50.898;10.854;2023-05-20T05:32:06;99122.34;;;10.00;100.00
65897;BME280;52677;50.898;10.854;2023-05-20T05:34:06;99113.19;;;9.96;100.00
65897;BME280;52677;50.898;10.854;2023-05-20T05:36:07;99118.72;;;9.96;100.00
65897;BME280;52677;50.898;10.854;2023-05-20T05:38:07;99118.00;;;9.99;100.00
65897;BME280;52677;50.898;10.854;2023-05-20T05:40:08;99118.91;;;10.03;100.00
65897;BME280;52677;50.898;10.854;2023-05-20T05:42:09;99119.34;;;10.05;100.00
65897;BME280;52677;50.898;10.854;2023-05-20T05:44:09;99112.19;;;10.04;100.00
65897;BME280;52677;50.898;10.854;2023-05-20T05:46:09;99113.00;;;10.04;100.00
65897;BME280;52677;50.898;10.854;2023-05-20T05:48:10;99112.56;;;10.02;100.00
65897;BME280;52677;50.898;10.854;2023-05-20T05:50:10;99112.19;;;10.04;100.00
65897;BME280;52677;50.898;10.854;2023-05-20T05:52:11;99107.84;;;10.03;100.00
65897;BME280;52677;50.898;10.854;2023-05-20T05:54:11;99114.59;;;10.05;100.00
65897;BME280;52677;50.898;10.854;2023-05-20T05:56:12;99106.75;;;10.07;100.00
65897;BME280;52677;50.898;10.854;2023-05-20T05:58:12;99106.38;;;10.09;100.00
65897;BME280;52677;50.898;10.854;2023-05-20T06:00:13;99112.75;;;10.09;100.00
65897;BME280;52677;50.898;10.854;2023-05-20T06:02:13;99106.31;;;10.05;100.00
65897;BME280;52677;50.898;10.854;2023-05-20T06:04:13;99104.88;;;10.11;100.00
65897;BME280;52677;50.898;10.854;2023-05-20T06:06:14;99099.78;;;10.13;100.00
65897;BME280;52677;50.898;10.854;2023-05-20T06:08:14;99103.72;;;10.12;100.00
65897;BME280;52677;50.898;10.854;2023-05-20T06:10:14;99103.72;;;10.12;100.00
65897;BME280;52677;50.898;10.854;2023-05-20T06:12:15;99104.16;;;10.14;100.00
65897;BME280;52677;50.898;10.854;2023-05-20T06:14:15;99102.13;;;10.11;100.00
65897;BME280;52677;50.898;10.854;2023-05-20T06:16:15;99110.84;;;10.13;100.00
65897;BME280;52677;50.898;10.854;2023-05-20T06:18:16;99107.34;;;10.17;100.00
65897;BME280;52677;50.898;10.854;2023-05-20T06:20:16;99105.38;;;10.17;100.00
65897;BME280;52677;50.898;10.854;2023-05-20T06:22:16;99113.25;;;10.15;100.00
65897;BME280;52677;50.898;10.854;2023-05-20T06:24:17;99106.47;;;10.12;100.00
65897;BME280;52677;50.898;10.854;2023-05-20T06:26:17;99104.88;;;10.11;100.00
65897;BME280;52677;50.898;10.854;2023-05-20T06:28:17;99102.97;;;10.16;100.00
65897;BME280;52677;50.898;10.854;2023-05-20T06:30:18;99111.38;;;10.19;100.00
65897;BME280;52677;50.898;10.854;2023-05-20T06:32:18;99104.25;;;10.18;100.00
65897;BME280;52677;50.898;10.854;2023-05-20T06:34:19;99106.66;;;10.20;100.00
65897;BME280;52677;50.898;10.854;2023-05-20T06:36:19;99100.59;;;10.14;100.00
65897;BME280;52677;50.898;10.854;2023-05-20T06:38:20;99100.66;;;10.18;100.00
65897;BME280;52677;50.898;10.854;2023-05-20T06:40:20;99102.38;;;10.22;100.00
65897;BME280;52677;50.898;10.854;2023-05-20T06:42:20;99098.34;;;10.20;100.00
65897;BME280;52677;50.898;10.854;2023-05-20T06:44:21;99095.59;;;10.20;100.00
65897;BME280;52677;50.898;10.854;2023-05-20T06:46:21;99097.97;;;10.21;100.00
65897;BME280;52677;50.898;10.854;2023-05-20T06:48:21;99092.81;;;10.20;100.00
65897;BME280;52677;50.898;10.854;2023-05-20T06:50:22;99098.88;;;10.25;100.00
65897;BME280;52677;50.898;10.854;2023-05-20T06:52:23;99098.56;;;10.27;100.00
65897;BME280;52677;50.898;10.854;2023-05-20T06:54:23;99095.06;;;10.30;100.00
65897;BME280;52677;50.898;10.854;2023-05-20T06:56:23;99095.47;;;10.32;100.00
65897;BME280;52677;50.898;10.854;2023-05-20T06:58:24;99099.06;;;10.32;100.00
65897;BME280;52677;50.898;10.854;2023-05-20T07:00:24;99091.56;;;10.33;100.00
65897;BME280;52677;50.898;10.854;2023-05-20T07:02:24;99090.84;;;10.36;100.00
65897;BME280;52677;50.898;10.854;2023-05-20T07:04:25;99095.91;;;10.34;100.00
65897;BME280;52677;50.898;10.854;2023-05-20T07:06:25;99095.13;;;10.33;100.00
65897;BME280;52677;50.898;10.854;2023-05-20T07:08:26;99080.94;;;10.35;100.00
65897;BME280;52677;50.898;10.854;2023-05-20T07:10:26;99082.63;;;10.39;100.00
65897;BME280;52677;50.898;10.854;2023-05-20T07:12:26;99071.13;;;10.37;100.00
65897;BME280;52677;50.898;10.854;2023-05-20T07:14:26;99071.19;;;10.41;100.00
65897;BME280;52677;50.898;10.854;2023-05-20T07:16:27;99077.97;;;10.44;100.00
65897;BME280;52677;50.898;10.854;2023-05-20T07:18:28;99064.56;;;10.46;100.00
65897;BME280;52677;50.898;10.854;2023-05-20T07:20:29;99071.34;;;10.48;100.00
65897;BME280;52677;50.898;10.854;2023-05-20T07:22:31;99063.13;;;10.52;100.00
65897;BME280;52677;50.898;10.854;2023-05-20T07:24:31;99058.88;;;10.58;100.00
65897;BME280;52677;50.898;10.854;2023-05-20T07:26:32;99051.69;;;10.53;100.00
65897;BME280;52677;50.898;10.854;2023-05-20T07:28:36;99059.19;;;10.53;100.00
65897;BME280;52677;50.898;10.854;2023-05-20T07:30:36;99061.59;;;10.54;100.00
65897;BME280;52677;50.898;10.854;2023-05-20T07:32:37;99047.00;;;10.57;100.00
65897;BME280;52677;50.898;10.854;2023-05-20T07:34:37;99049.88;;;10.61;100.00
65897;BME280;52677;50.898;10.854;2023-05-20T07:36:37;99061.81;;;10.65;100.00
65897;BME280;52677;50.898;10.854;2023-05-20T07:38:38;99062.97;;;10.64;100.00
65897;BME280;52677;50.898;10.854;2023-05-20T07:40:39;99061.53;;;10.70;100.00
65897;BME280;52677;50.898;10.854;2023-05-20T07:42:40;99065.09;;;10.71;100.00
65897;BME280;52677;50.898;10.854;2023-05-20T07:44:40;99059.91;;;10.69;100.00
65897;BME280;52677;50.898;10.854;2023-05-20T07:46:41;99061.56;;;10.74;100.00
65897;BME280;52677;50.898;10.854;2023-05-20T07:48:41;99051.31;;;10.74;100.00
65897;BME280;52677;50.898;10.854;2023-05-20T07:50:41;99056.19;;;10.81;100.00
65897;BME280;52677;50.898;10.854;2023-05-20T07:52:42;99052.19;;;10.78;100.00
65897;BME280;52677;50.898;10.854;2023-05-20T07:54:42;99044.09;;;10.89;100.00
65897;BME280;52677;50.898;10.854;2023-05-20T07:56:42;99052.47;;;10.92;100.00
65897;BME280;52677;50.898;10.854;2023-05-20T07:58:51;99054.09;;;10.93;100.00
65897;BME280;52677;50.898;10.854;2023-05-20T08:00:51;99056.09;;;10.96;100.00
65897;BME280;52677;50.898;10.854;2023-05-20T08:02:52;99055.72;;;10.98;100.00
65897;BME280;52677;50.898;10.854;2023-05-20T08:04:52;99052.59;;;11.00;100.00
65897;BME280;52677;50.898;10.854;2023-05-20T08:06:52;99049.47;;;11.01;100.00
65897;BME280;52677;50.898;10.854;2023-05-20T08:08:53;99045.16;;;11.04;100.00
65897;BME280;52677;50.898;10.854;2023-05-20T08:10:53;99047.28;;;11.10;100.00
65897;BME280;52677;50.898;10.854;2023-05-20T08:12:54;99045.69;;;11.09;100.00
65897;BME280;52677;50.898;10.854;2023-05-20T08:14:54;99050.38;;;11.09;100.00
65897;BME280;52677;50.898;10.854;2023-05-20T08:16:55;99055.75;;;11.21;100.00
65897;BME280;52677;50.898;10.854;2023-05-20T08:18:55;99049.94;;;11.26;100.00
65897;BME280;52677;50.898;10.854;2023-05-20T08:20:55;99046.41;;;11.29;100.00
65897;BME280;52677;50.898;10.854;2023-05-20T08:22:56;99051.66;;;11.34;100.00
65897;BME280;52677;50.898;10.854;2023-05-20T08:24:56;99051.28;;;11.36;100.00
65897;BME280;52677;50.898;10.854;2023-05-20T08:26:56;99046.16;;;11.38;100.00
65897;BME280;52677;50.898;10.854;2023-05-20T08:28:57;99040.25;;;11.39;100.00
65897;BME280;52677;50.898;10.854;2023-05-20T08:31:00;99049.00;;;11.41;100.00
65897;BME280;52677;50.898;10.854;2023-05-20T08:33:00;99032.75;;;11.40;100.00
65897;BME280;52677;50.898;10.854;2023-05-20T08:35:02;99033.63;;;11.44;100.00
65897;BME280;52677;50.898;10.854;2023-05-20T08:37:02;99031.69;;;11.48;100.00
65897;BME280;52677;50.898;10.854;2023-05-20T08:39:03;99015.56;;;11.53;100.00
65897;BME280;52677;50.898;10.854;2023-05-20T08:41:03;99024.28;;;11.56;100.00
65897;BME280;52677;50.898;10.854;2023-05-20T08:43:04;99013.53;;;11.50;100.00
65897;BME280;52677;50.898;10.854;2023-05-20T08:45:04;99026.22;;;11.51;100.00
65897;BME280;52677;50.898;10.854;2023-05-20T08:47:06;99033.75;;;11.51;100.00
65897;BME280;52677;50.898;10.854;2023-05-20T08:49:07;99039.31;;;11.54;100.00
65897;BME280;52677;50.898;10.854;2023-05-20T08:51:08;99018.38;;;11.57;100.00
65897;BME280;52677;50.898;10.854;2023-05-20T08:53:10;99020.84;;;11.62;100.00
65897;BME280;52677;50.898;10.854;2023-05-20T08:55:14;99023.31;;;11.67;100.00
65897;BME280;52677;50.898;10.854;2023-05-20T08:57:15;99034.13;;;11.76;100.00
65897;BME280;52677;50.898;10.854;2023-05-20T08:59:16;99024.66;;;11.77;100.00
65897;BME280;52677;50.898;10.854;2023-05-20T09:01:17;99023.53;;;11.81;100.00
65897;BME280;52677;50.898;10.854;2023-05-20T09:03:17;99019.25;;;11.84;100.00
65897;BME280;52677;50.898;10.854;2023-05-20T09:05:19;99019.69;;;11.90;100.00
65897;BME280;52677;50.898;10.854;2023-05-20T09:07:27;99015.81;;;11.94;100.00
65897;BME280;52677;50.898;10.854;2023-05-20T09:09:28;99021.47;;;12.01;100.00
65897;BME280;52677;50.898;10.854;2023-05-20T09:11:29;99021.09;;;12.03;100.00
65897;BME280;52677;50.898;10.854;2023-05-20T09:13:30;99017.94;;;12.04;100.00
65897;BME280;52677;50.898;10.854;2023-05-20T09:15:32;99013.59;;;12.07;100.00
65897;BME280;52677;50.898;10.854;2023-05-20T09:17:37;99015.19;;;12.08;100.00
65897;BME280;52677;50.898;10.854;2023-05-20T09:19:37;99015.66;;;12.10;100.00
65897;BME280;52677;50.898;10.854;2023-05-20T09:21:40;99017.28;;;12.15;100.00
65897;BME280;52677;50.898;10.854;2023-05-20T09:23:46;99015.00;;;12.20;100.00
65897;BME280;52677;50.898;10.854;2023-05-20T09:25:50;99026.88;;;12.21;100.00
65897;BME280;52677;50.898;10.854;2023-05-20T09:27:51;99026.13;;;12.24;100.00
65897;BME280;52677;50.898;10.854;2023-05-20T09:29:51;99024.59;;;12.26;100.00
65897;BME280;52677;50.898;10.854;2023-05-20T09:31:51;99029.38;;;12.29;100.00
65897;BME280;52677;50.898;10.854;2023-05-20T09:33:55;99019.47;;;12.28;100.00
65897;BME280;52677;50.898;10.854;2023-05-20T09:36:08;99030.97;;;12.30;100.00
65897;BME280;52677;50.898;10.854;2023-05-20T09:38:11;99027.47;;;12.33;100.00
65897;BME280;52677;50.898;10.854;2023-05-20T09:40:12;99021.53;;;12.35;100.00
65897;BME280;52677;50.898;10.854;2023-05-20T09:42:17;99024.72;;;12.37;100.00
65897;BME280;52677;50.898;10.854;2023-05-20T09:44:21;99026.31;;;12.38;100.00
65897;BME280;52677;50.898;10.854;2023-05-20T09:46:22;99019.22;;;12.41;100.00
65897;BME280;52677;50.898;10.854;2023-05-20T09:48:23;99017.53;;;12.32;100.00
65897;BME280;52677;50.898;10.854;2023-05-20T09:50:24;99025.56;;;12.41;100.00
65897;BME280;52677;50.898;10.854;2023-05-20T09:52:25;99021.56;;;12.38;100.00
65897;BME280;52677;50.898;10.854;2023-05-20T09:54:27;99017.63;;;12.40;100.00
65897;BME280;52677;50.898;10.854;2023-05-20T09:56:28;99004.22;;;12.45;100.00
65897;BME280;52677;50.898;10.854;2023-05-20T09:58:29;99007.03;;;12.49;100.00
65897;BME280;52677;50.898;10.854;2023-05-20T10:00:30;99003.03;;;12.46;100.00
65897;BME280;52677;50.898;10.854;2023-05-20T10:02:32;98994.72;;;12.46;100.00
65897;BME280;52677;50.898;10.854;2023-05-20T10:04:34;99001.94;;;12.54;100.00
65897;BME280;52677;50.898;10.854;2023-05-20T10:07:00;98992.81;;;12.54;100.00
65897;BME280;52677;50.898;10.854;2023-05-20T10:13:29;98994.13;;;12.63;100.00
65897;BME280;52677;50.898;10.854;2023-05-20T10:16:08;98998.97;;;12.70;100.00
65897;BME280;52677;50.898;10.854;2023-05-20T10:20:31;98995.50;;;12.80;100.00
65897;BME280;52677;50.898;10.854;2023-05-20T10:22:32;98988.31;;;12.76;100.00
65897;BME280;52677;50.898;10.854;2023-05-20T10:26:40;98993.19;;;12.86;100.00
65897;BME280;52677;50.898;10.854;2023-05-20T10:28:41;98989.59;;;12.85;100.00
65897;BME280;52677;50.898;10.854;2023-05-20T10:30:48;98992.47;;;12.92;100.00
65897;BME280;52677;50.898;10.854;2023-05-20T10:32:53;98990.44;;;12.89;100.00
65897;BME280;52677;50.898;10.854;2023-05-20T10:35:03;98984.53;;;12.91;100.00